Time;durP1;ratioP1;P1;durP2;ratioP2;P2;SDS_P1;SDS_P2;PMS_P1;PMS_P2;Temp;Humidity;BMP_temperature;BMP_pressure;BME280_temperature;BME280_humidity;BME280_pressure;Samples;Min_cycle;Max_cycle;Signal;HPM_P1;HPM_P2
2022/04/27 00:00:51;;;;;;;2.08;0.40;;;4.00;99.90;;;;;;5044159;28;20055;-65
2022/04/27 00:03:16;;;;;;;1.40;0.50;;;3.90;99.90;;;;;;5048689;28;20049;-67
2022/04/27 00:05:43;;;;;;;1.13;0.30;;;3.90;99.90;;;;;;5053538;28;20043;-67
2022/04/27 00:08:09;;;;;;;1.55;0.40;;;3.90;99.90;;;;;;5048622;28;20029;-67
2022/04/27 00:10:34;;;;;;;1.55;0.40;;;3.90;99.90;;;;;;5047027;28;20123;-68
2022/04/27 00:13:00;;;;;;;1.23;0.30;;;3.90;99.90;;;;;;5049567;28;20106;-67
2022/04/27 00:15:27;;;;;;;1.65;0.40;;;3.90;99.90;;;;;;5052018;28;20060;-67
2022/04/27 00:17:53;;;;;;;0.70;0.30;;;3.90;99.90;;;;;;5049453;28;20480;-67
2022/04/27 00:20:19;;;;;;;1.73;0.40;;;3.80;99.90;;;;;;5049088;28;20025;-66
2022/04/27 00:22:45;;;;;;;1.33;0.30;;;3.80;99.90;;;;;;5046933;28;20144;-66
2022/04/27 00:25:10;;;;;;;0.38;0.30;;;3.80;99.90;;;;;;5057586;28;20025;-66
2022/04/27 00:27:36;;;;;;;2.03;0.47;;;3.90;99.90;;;;;;5047594;28;20037;-66
2022/04/27 00:30:02;;;;;;;1.70;0.40;;;3.80;99.90;;;;;;5051544;28;20036;-67
2022/04/27 00:32:28;;;;;;;1.40;0.30;;;3.80;99.90;;;;;;5049271;28;20056;-66
2022/04/27 00:34:54;;;;;;;1.63;0.40;;;3.90;99.90;;;;;;5045456;28;20499;-67
2022/04/27 00:37:19;;;;;;;1.13;0.35;;;3.90;99.90;;;;;;5058418;28;20036;-67
2022/04/27 00:39:45;;;;;;;1.17;0.40;;;3.90;99.90;;;;;;5065304;28;20056;-66
2022/04/27 00:42:24;;;;;;;1.23;0.35;;;3.90;99.90;;;;;;5053755;28;20025;-66
2022/04/27 00:44:50;;;;;;;0.45;0.30;;;3.80;99.90;;;;;;5059705;28;20500;-66
2022/04/27 00:47:17;;;;;;;1.27;0.30;;;3.80;99.90;;;;;;5054711;28;20032;-67
2022/04/27 00:49:50;;;;;;;1.30;0.40;;;3.70;99.90;;;;;;5050019;28;20470;-66
2022/04/27 00:52:17;;;;;;;1.45;0.40;;;3.70;99.90;;;;;;5050578;28;20036;-67
2022/04/27 00:54:46;;;;;;;2.00;0.50;;;3.60;99.90;;;;;;5056761;28;20085;-66
2022/04/27 00:57:11;;;;;;;1.25;0.30;;;3.60;99.90;;;;;;5045166;28;20029;-66
2022/04/27 00:59:38;;;;;;;1.33;0.30;;;3.60;99.90;;;;;;5046055;28;20018;-66
2022/04/27 01:02:05;;;;;;;1.48;0.40;;;3.60;99.90;;;;;;5047358;28;20036;-67
2022/04/27 01:04:33;;;;;;;1.17;0.30;;;3.60;99.90;;;;;;5049022;28;20122;-66
2022/04/27 01:06:59;;;;;;;1.65;0.40;;;3.60;99.90;;;;;;5053919;28;20040;-66
2022/04/27 01:09:26;;;;;;;0.52;0.30;;;3.50;99.90;;;;;;5059676;28;20472;-66
2022/04/27 01:11:53;;;;;;;1.08;0.52;;;3.50;99.90;;;;;;5044709;28;20029;-67
2022/04/27 01:14:19;;;;;;;1.27;0.38;;;3.40;99.90;;;;;;5052387;28;20033;-67
2022/04/27 01:16:55;;;;;;;0.90;0.30;;;3.40;99.90;;;;;;5051437;28;20049;-66
2022/04/27 01:19:23;;;;;;;1.20;0.40;;;3.40;99.90;;;;;;5059718;28;20029;-67
2022/04/27 01:21:50;;;;;;;1.67;0.40;;;3.40;99.90;;;;;;5049990;28;20071;-66
2022/04/27 01:24:24;;;;;;;1.50;0.40;;;3.40;99.90;;;;;;5052050;28;20427;-66
2022/04/27 01:26:51;;;;;;;2.28;0.50;;;3.30;99.90;;;;;;5051508;28;20041;-66
2022/04/27 01:29:18;;;;;;;1.63;0.52;;;3.30;99.90;;;;;;5050967;28;20040;-66
2022/04/27 01:31:45;;;;;;;1.90;0.40;;;3.30;99.90;;;;;;5045440;28;20025;-66
2022/04/27 01:34:11;;;;;;;1.63;0.40;;;3.30;99.90;;;;;;5045127;28;20037;-66
2022/04/27 01:36:37;;;;;;;1.83;0.40;;;3.40;99.90;;;;;;5059150;28;20466;-66
2022/04/27 01:39:03;;;;;;;1.92;0.43;;;3.30;99.90;;;;;;5046821;28;20034;-66
2022/04/27 01:41:29;;;;;;;1.42;0.40;;;3.50;99.90;;;;;;5055662;28;20028;-66
2022/04/27 01:43:54;;;;;;;1.80;0.40;;;3.60;99.90;;;;;;5050538;28;20064;-66
2022/04/27 01:46:20;;;;;;;1.40;0.40;;;3.70;99.90;;;;;;5054252;28;20157;-67
2022/04/27 01:48:46;;;;;;;1.45;0.40;;;3.80;99.90;;;;;;5063207;28;20033;-66
2022/04/27 01:51:13;;;;;;;1.15;0.30;;;4.00;99.90;;;;;;5061877;28;20501;-66
2022/04/27 01:56:23;;;;;;;0.93;0.30;;;4.20;99.90;;;;;;5058578;28;20048;-66
2022/04/27 01:58:48;;;;;;;1.70;0.40;;;4.20;99.90;;;;;;5059437;28;20033;-67
2022/04/27 02:01:14;;;;;;;0.88;0.30;;;4.30;99.90;;;;;;5054137;28;20059;-66
2022/04/27 02:03:40;;;;;;;1.55;0.40;;;4.30;99.90;;;;;;5055519;28;20056;-66
2022/04/27 02:06:06;;;;;;;1.60;0.40;;;4.40;99.90;;;;;;5047525;28;20129;-66
2022/04/27 02:08:32;;;;;;;1.77;0.60;;;4.40;99.90;;;;;;5046917;28;20036;-66
2022/04/27 02:10:58;;;;;;;1.80;0.40;;;4.50;99.90;;;;;;5060637;28;20477;-67
2022/04/27 02:13:27;;;;;;;1.67;0.40;;;4.60;99.90;;;;;;5056541;28;20477;-67
2022/04/27 02:15:53;;;;;;;1.23;0.35;;;4.60;99.90;;;;;;5044985;28;20033;-66
2022/04/27 02:18:19;;;;;;;1.73;0.40;;;4.70;99.90;;;;;;5049856;28;20045;-67
2022/04/27 02:20:46;;;;;;;0.93;0.30;;;4.70;99.90;;;;;;5044880;28;20505;-67
2022/04/27 02:23:12;;;;;;;0.95;0.30;;;4.70;99.90;;;;;;5055458;28;20041;-67
2022/04/27 02:25:37;;;;;;;1.55;0.40;;;4.80;99.90;;;;;;5049570;28;20029;-66
2022/04/27 02:28:05;;;;;;;1.45;0.40;;;4.80;99.90;;;;;;5061603;28;20044;-66
2022/04/27 02:30:31;;;;;;;1.15;0.32;;;4.90;99.90;;;;;;5055154;28;20105;-66
2022/04/27 02:32:56;;;;;;;1.25;0.40;;;4.90;99.90;;;;;;5057074;28;20478;-67
2022/04/27 02:35:22;;;;;;;0.98;0.30;;;5.00;99.90;;;;;;5063045;28;20061;-66
2022/04/27 02:37:48;;;;;;;1.38;0.30;;;5.00;99.90;;;;;;5043357;28;20089;-66
2022/04/27 02:40:14;;;;;;;0.73;0.30;;;5.10;99.90;;;;;;5050204;28;20131;-66
2022/04/27 02:42:40;;;;;;;1.10;0.30;;;5.20;99.90;;;;;;5060963;28;20127;-67
2022/04/27 02:45:06;;;;;;;1.83;0.40;;;5.20;99.90;;;;;;5056987;28;20556;-66
2022/04/27 02:47:31;;;;;;;1.50;0.40;;;5.20;99.90;;;;;;5052661;28;20104;-66
2022/04/27 02:52:41;;;;;;;1.10;0.32;;;5.20;99.90;;;;;;5058095;28;20044;-65
2022/04/27 02:55:07;;;;;;;0.70;0.30;;;5.30;99.90;;;;;;5048615;28;20020;-66
2022/04/27 02:57:33;;;;;;;1.00;0.30;;;5.20;99.90;;;;;;5053389;28;20496;-66
2022/04/27 02:59:58;;;;;;;1.10;0.32;;;5.30;99.90;;;;;;5051748;28;20048;-66
2022/04/27 03:02:24;;;;;;;1.33;0.40;;;5.30;99.90;;;;;;5048789;28;20044;-66
2022/04/27 03:04:49;;;;;;;1.23;0.30;;;5.30;99.90;;;;;;5051497;28;20545;-66
2022/04/27 03:07:15;;;;;;;1.80;0.40;;;5.30;99.90;;;;;;5055032;28;20075;-67
2022/04/27 03:09:41;;;;;;;2.00;0.50;;;5.30;99.90;;;;;;5058106;28;20063;-67
2022/04/27 03:12:07;;;;;;;1.70;0.40;;;5.30;99.90;;;;;;5054300;28;20028;-65
2022/04/27 03:14:33;;;;;;;1.92;0.43;;;5.40;99.90;;;;;;5052431;28;20040;-67
2022/04/27 03:16:58;;;;;;;1.13;0.30;;;5.30;99.90;;;;;;5048244;28;20026;-65
2022/04/27 03:19:24;;;;;;;1.35;0.40;;;5.40;99.90;;;;;;5046036;28;20030;-66
2022/04/27 03:21:50;;;;;;;1.30;0.40;;;5.40;99.90;;;;;;5045251;28;20025;-66
2022/04/27 03:24:16;;;;;;;1.20;0.40;;;5.40;99.90;;;;;;5062811;28;20531;-66
2022/04/27 03:26:42;;;;;;;1.48;0.40;;;5.40;99.90;;;;;;5046361;28;20018;-66
2022/04/27 03:29:08;;;;;;;1.55;0.30;;;5.40;99.90;;;;;;5054978;28;20052;-66
2022/04/27 03:31:33;;;;;;;1.65;0.40;;;5.40;99.90;;;;;;5053331;28;20029;-65
2022/04/27 03:33:59;;;;;;;1.75;0.40;;;5.40;99.90;;;;;;5059613;28;20140;-66
2022/04/27 03:36:25;;;;;;;0.85;0.30;;;5.40;99.90;;;;;;5058527;28;20032;-66
2022/04/27 03:38:51;;;;;;;1.48;0.30;;;5.50;99.90;;;;;;5051191;28;20032;-66
2022/04/27 03:41:20;;;;;;;1.13;0.30;;;5.50;99.90;;;;;;5045987;28;20069;-66
2022/04/27 03:43:46;;;;;;;1.00;0.30;;;5.50;99.90;;;;;;5055572;28;20060;-66
2022/04/27 03:46:12;;;;;;;1.95;0.40;;;5.50;99.90;;;;;;5057274;28;20022;-66
2022/04/27 03:48:38;;;;;;;1.30;0.30;;;5.50;99.90;;;;;;5053870;28;20040;-66
2022/04/27 03:51:04;;;;;;;1.88;0.40;;;5.60;99.90;;;;;;5049703;28;20029;-67
2022/04/27 03:53:30;;;;;;;1.45;0.40;;;5.60;99.90;;;;;;5042969;28;20064;-66
2022/04/27 03:55:56;;;;;;;1.13;0.30;;;5.60;99.90;;;;;;5042247;28;20026;-65
2022/04/27 03:58:22;;;;;;;1.15;0.60;;;5.70;99.90;;;;;;5040913;28;20505;-66
2022/04/27 04:00:47;;;;;;;0.98;0.30;;;5.70;99.90;;;;;;5052894;28;20036;-66
2022/04/27 04:03:13;;;;;;;0.82;0.30;;;5.70;99.90;;;;;;5047456;28;20061;-66
2022/04/27 04:05:39;;;;;;;0.90;0.30;;;5.70;99.90;;;;;;5077354;28;20024;-66
2022/04/27 04:08:05;;;;;;;1.42;0.40;;;5.80;99.90;;;;;;5047041;28;20044;-66
2022/04/27 04:10:31;;;;;;;1.00;0.32;;;5.80;99.90;;;;;;5056520;28;20037;-66
2022/04/27 04:12:57;;;;;;;1.13;0.32;;;5.80;99.90;;;;;;5041515;28;20041;-66
2022/04/27 04:15:23;;;;;;;1.25;0.30;;;5.80;99.90;;;;;;5051961;28;20040;-66
2022/04/27 04:17:48;;;;;;;1.38;0.30;;;5.80;99.90;;;;;;5057193;28;20037;-66
2022/04/27 04:20:17;;;;;;;0.77;0.30;;;5.90;99.90;;;;;;5050412;28;20064;-66
2022/04/27 04:22:43;;;;;;;1.30;0.40;;;5.90;99.90;;;;;;5054077;28;20076;-66
2022/04/27 04:30:39;;;;;;;0.90;0.30;;;6.00;99.90;;;;;;5052184;28;20098;-66
2022/04/27 04:33:05;;;;;;;1.40;0.40;;;6.10;99.90;;;;;;5055086;28;20025;-66
2022/04/27 04:35:31;;;;;;;0.47;0.30;;;6.10;99.90;;;;;;5044641;28;20502;-66
2022/04/27 04:37:57;;;;;;;0.75;0.30;;;6.10;99.90;;;;;;5057775;28;20071;-66
2022/04/27 04:40:23;;;;;;;0.77;0.30;;;6.10;99.90;;;;;;5047573;28;20029;-66
2022/04/27 04:42:48;;;;;;;0.65;0.30;;;6.20;99.90;;;;;;5053977;28;20596;-66
2022/04/27 04:45:14;;;;;;;0.80;0.30;;;6.20;99.90;;;;;;5047321;28;20301;-66
2022/04/27 04:47:42;;;;;;;1.20;0.35;;;6.30;99.90;;;;;;5048775;28;20036;-66
2022/04/27 04:50:12;;;;;;;0.77;0.30;;;6.40;99.90;;;;;;5047891;28;20108;-66
2022/04/27 04:52:38;;;;;;;1.23;0.32;;;6.40;99.90;;;;;;5046788;28;20021;-66
2022/04/27 04:55:04;;;;;;;0.85;0.30;;;6.50;99.90;;;;;;5051759;28;20056;-66
2022/04/27 04:57:30;;;;;;;1.00;0.30;;;6.50;99.90;;;;;;5050013;28;20040;-66
2022/04/27 04:59:56;;;;;;;1.00;0.30;;;6.50;99.90;;;;;;5051925;28;20100;-66
2022/04/27 05:02:22;;;;;;;1.38;0.35;;;6.60;99.90;;;;;;5044766;28;20092;-66
2022/04/27 05:04:49;;;;;;;1.13;0.32;;;6.60;99.90;;;;;;5045614;28;20052;-66
2022/04/27 05:07:18;;;;;;;1.17;0.38;;;6.60;99.90;;;;;;5047516;28;20060;-66
2022/04/27 05:09:44;;;;;;;1.63;0.40;;;6.70;99.90;;;;;;5047407;28;20064;-66
2022/04/27 05:12:10;;;;;;;0.88;0.30;;;6.80;99.90;;;;;;5047488;28;20033;-66
2022/04/27 05:14:36;;;;;;;1.10;0.38;;;6.80;99.90;;;;;;5059812;28;20041;-66
2022/04/27 05:17:02;;;;;;;1.33;0.40;;;6.90;99.90;;;;;;5050961;28;20098;-66
2022/04/27 05:19:27;;;;;;;1.17;0.60;;;6.90;99.90;;;;;;5042899;28;20021;-65
2022/04/27 05:21:53;;;;;;;1.17;0.30;;;7.00;99.90;;;;;;5056541;28;20041;-65
2022/04/27 05:24:18;;;;;;;0.70;0.30;;;7.00;99.90;;;;;;5051457;28;20063;-65
2022/04/27 05:26:44;;;;;;;1.40;0.40;;;7.00;99.90;;;;;;5058658;28;20021;-65
2022/04/27 05:31:54;;;;;;;1.45;0.40;;;7.10;99.90;;;;;;5048861;28;20060;-66
2022/04/27 05:34:20;;;;;;;1.23;0.40;;;7.20;99.90;;;;;;5049276;28;20037;-66
2022/04/27 05:36:46;;;;;;;1.63;0.40;;;7.20;99.90;;;;;;5048330;28;20047;-66
2022/04/27 05:39:12;;;;;;;0.63;0.30;;;7.20;99.90;;;;;;5052217;28;20021;-66
2022/04/27 05:41:38;;;;;;;0.82;0.30;;;7.30;99.90;;;;;;5057814;28;20025;-66
2022/04/27 05:44:09;;;;;;;1.45;0.40;;;7.30;99.90;;;;;;5052629;28;20111;-66
2022/04/27 05:46:35;;;;;;;1.05;0.40;;;7.30;99.90;;;;;;5054498;28;20025;-66
2022/04/27 05:49:01;;;;;;;1.95;0.50;;;7.40;99.90;;;;;;5052845;28;20029;-66
2022/04/27 05:51:28;;;;;;;0.98;0.35;;;7.40;99.90;;;;;;5047449;28;20025;-66
2022/04/27 05:53:53;;;;;;;0.63;0.30;;;7.40;99.90;;;;;;5042238;28;20489;-66
2022/04/27 05:56:19;;;;;;;0.93;0.30;;;7.50;99.90;;;;;;5039968;28;20528;-66
2022/04/27 05:58:45;;;;;;;1.17;0.40;;;7.50;99.90;;;;;;5046860;28;20093;-66
2022/04/27 06:01:11;;;;;;;1.35;0.40;;;7.60;99.90;;;;;;5041047;28;20030;-66
2022/04/27 06:03:37;;;;;;;1.05;0.32;;;7.60;99.90;;;;;;5039656;28;20037;-66
2022/04/27 06:06:03;;;;;;;1.20;0.40;;;7.70;99.90;;;;;;5040646;28;20081;-67
2022/04/27 06:08:29;;;;;;;0.98;0.38;;;7.80;99.90;;;;;;5050631;28;20516;-66
2022/04/27 06:10:55;;;;;;;1.60;0.40;;;7.90;99.90;;;;;;5039124;28;20033;-66
2022/04/27 06:13:20;;;;;;;1.15;0.35;;;7.90;99.90;;;;;;5040195;28;20022;-66
2022/04/27 06:15:46;;;;;;;0.73;0.30;;;8.00;99.90;;;;;;5047278;28;20040;-66
2022/04/27 06:18:12;;;;;;;0.98;0.35;;;8.10;99.90;;;;;;5046856;28;20017;-66
2022/04/27 06:20:38;;;;;;;1.23;0.35;;;8.10;99.90;;;;;;5045662;28;20037;-66
2022/04/27 06:23:04;;;;;;;0.30;0.28;;;8.20;99.90;;;;;;5053696;28;20067;-66
2022/04/27 06:25:30;;;;;;;1.00;0.30;;;8.20;99.90;;;;;;5051687;28;20063;-66
2022/04/27 06:27:56;;;;;;;0.80;0.30;;;8.30;99.90;;;;;;5042771;28;20039;-66
2022/04/27 06:30:24;;;;;;;1.08;0.32;;;8.30;99.90;;;;;;5048051;28;20068;-66
2022/04/27 06:32:50;;;;;;;0.80;0.30;;;8.40;99.90;;;;;;5057695;28;20037;-67
2022/04/27 06:35:16;;;;;;;1.25;0.40;;;8.50;99.90;;;;;;5048296;28;20041;-67
2022/04/27 06:37:42;;;;;;;1.13;0.32;;;8.60;99.90;;;;;;5044034;28;20097;-65
2022/04/27 06:40:09;;;;;;;0.90;0.35;;;8.70;99.90;;;;;;5046899;28;20030;-78
2022/04/27 06:42:35;;;;;;;0.90;0.30;;;8.80;99.90;;;;;;5052074;28;20028;-76
2022/04/27 06:45:05;;;;;;;1.02;0.40;;;8.80;99.90;;;;;;5043537;28;20029;-78
2022/04/27 06:47:30;;;;;;;0.57;0.30;;;8.90;99.90;;;;;;5039394;28;20025;-65
2022/04/27 06:49:56;;;;;;;0.85;0.30;;;9.00;99.90;;;;;;5046611;28;20040;-65
2022/04/27 06:52:22;;;;;;;1.10;0.30;;;9.20;99.90;;;;;;5049958;28;20025;-64
2022/04/27 06:54:48;;;;;;;1.48;0.40;;;9.20;99.90;;;;;;5047347;28;20025;-64
2022/04/27 06:57:14;;;;;;;0.55;0.30;;;9.30;99.90;;;;;;5047890;28;20025;-64
2022/04/27 06:59:39;;;;;;;1.02;0.38;;;9.40;99.90;;;;;;5046933;28;20112;-65
2022/04/27 07:02:06;;;;;;;1.40;0.40;;;9.40;99.90;;;;;;5047397;28;20445;-65
2022/04/27 07:04:34;;;;;;;1.02;0.35;;;9.50;99.90;;;;;;5045756;28;20072;-65
2022/04/27 07:07:04;;;;;;;0.90;0.32;;;9.70;99.90;;;;;;5049273;28;20072;-65
2022/04/27 07:09:33;;;;;;;0.57;0.30;;;9.60;99.90;;;;;;5038116;28;20049;-63
2022/04/27 07:11:59;;;;;;;0.90;0.30;;;9.80;99.90;;;;;;5046722;28;20029;-64
2022/04/27 07:14:25;;;;;;;0.88;0.30;;;9.80;99.90;;;;;;5048091;28;20042;-66
2022/04/27 07:16:50;;;;;;;0.65;0.30;;;9.90;99.90;;;;;;5048294;28;20025;-65
2022/04/27 07:19:17;;;;;;;0.57;0.30;;;9.90;99.90;;;;;;5049934;28;20025;-65
2022/04/27 07:21:43;;;;;;;0.40;0.20;;;10.00;99.90;;;;;;5049606;28;20029;-66
2022/04/27 07:24:08;;;;;;;0.93;0.30;;;10.20;99.90;;;;;;5051036;28;20398;-67
2022/04/27 07:26:34;;;;;;;0.50;0.20;;;10.30;99.90;;;;;;5051461;28;20432;-66
2022/04/27 07:29:00;;;;;;;0.65;0.30;;;10.30;99.90;;;;;;5048449;28;20037;-65
2022/04/27 07:31:26;;;;;;;0.93;0.30;;;10.40;99.90;;;;;;5046902;28;20036;-65
2022/04/27 07:33:52;;;;;;;0.90;0.40;;;10.50;99.90;;;;;;5042716;28;20749;-64
2022/04/27 07:36:18;;;;;;;0.63;0.30;;;10.60;99.90;;;;;;5050106;28;20057;-64
2022/04/27 07:38:44;;;;;;;0.90;0.30;;;10.70;99.90;;;;;;5041569;28;20025;-64
2022/04/27 07:41:11;;;;;;;0.63;0.30;;;10.50;99.90;;;;;;5043396;28;20040;-65
2022/04/27 07:43:37;;;;;;;0.63;0.30;;;10.80;99.90;;;;;;5040731;28;20071;-65
2022/04/27 07:46:08;;;;;;;0.82;0.30;;;10.80;99.90;;;;;;5045532;28;20108;-65
2022/04/27 07:48:34;;;;;;;0.88;0.30;;;10.90;99.90;;;;;;5042745;28;20026;-65
2022/04/27 07:51:00;;;;;;;0.88;0.30;;;11.00;99.90;;;;;;5041551;28;20117;-65
2022/04/27 07:53:26;;;;;;;0.55;0.30;;;11.20;99.90;;;;;;5048075;28;20143;-65
2022/04/27 07:55:52;;;;;;;0.20;0.20;;;11.40;99.90;;;;;;5041616;28;20041;-65
2022/04/27 07:58:18;;;;;;;0.20;0.20;;;11.60;99.90;;;;;;5041149;28;20104;-65
2022/04/27 08:00:43;;;;;;;0.77;0.30;;;11.70;99.90;;;;;;5041959;28;20057;-64
2022/04/27 08:03:09;;;;;;;0.75;0.30;;;11.60;99.90;;;;;;5042022;28;20044;-65
2022/04/27 08:05:35;;;;;;;0.50;0.30;;;11.60;99.90;;;;;;5041979;28;20093;-64
2022/04/27 08:08:00;;;;;;;0.77;0.30;;;11.70;99.90;;;;;;5040898;28;20041;-65
2022/04/27 08:10:26;;;;;;;0.65;0.30;;;11.50;91.00;;;;;;5042300;28;20065;-65
2022/04/27 08:12:52;;;;;;;0.47;0.28;;;11.70;98.30;;;;;;5043074;28;20036;-65
2022/04/27 08:15:20;;;;;;;0.77;0.30;;;11.80;99.90;;;;;;5042457;28;20029;-65
2022/04/27 08:17:51;;;;;;;0.32;0.20;;;11.80;99.90;;;;;;5041250;28;20389;-64
2022/04/27 08:23:23;;;;;;;0.88;0.57;;;11.80;92.70;;;;;;5059027;28;20046;-65
2022/04/27 08:25:50;;;;;;;0.68;0.30;;;11.90;99.90;;;;;;5042154;28;20056;-65
2022/04/27 08:28:17;;;;;;;0.30;0.20;;;11.90;99.90;;;;;;5044938;28;20078;-65
2022/04/27 08:30:48;;;;;;;0.47;0.20;;;12.10;99.90;;;;;;5045231;28;20029;-66
2022/04/27 08:33:14;;;;;;;0.63;0.30;;;12.20;92.00;;;;;;5049252;28;20040;-66
2022/04/27 08:35:40;;;;;;;0.73;0.30;;;12.20;97.40;;;;;;5048083;28;20296;-65
2022/04/27 08:38:07;;;;;;;0.50;0.28;;;12.10;97.20;;;;;;5052341;28;20047;-65
2022/04/27 08:40:40;;;;;;;0.75;0.30;;;11.90;92.40;;;;;;5047767;28;20026;-66
2022/04/27 08:43:06;;;;;;;1.17;0.40;;;12.10;89.80;;;;;;5054714;28;20050;-66
2022/04/27 08:45:33;;;;;;;0.40;0.20;;;12.20;73.70;;;;;;5048158;28;20380;-66
2022/04/27 08:47:59;;;;;;;0.47;0.25;;;12.30;80.10;;;;;;5054096;28;20033;-66
2022/04/27 08:50:26;;;;;;;0.80;0.30;;;12.70;80.80;;;;;;5051516;28;20025;-66
2022/04/27 08:52:53;;;;;;;0.20;0.20;;;13.20;91.40;;;;;;5045628;28;20048;-66
2022/04/27 08:55:19;;;;;;;0.25;0.20;;;13.10;72.80;;;;;;5046710;28;20032;-66
2022/04/27 08:57:45;;;;;;;0.20;0.20;;;13.40;87.00;;;;;;5048147;28;20037;-66
2022/04/27 09:00:14;;;;;;;0.60;0.25;;;13.90;71.80;;;;;;5044009;28;20034;-66
2022/04/27 09:02:40;;;;;;;0.25;0.20;;;14.20;80.50;;;;;;5057532;28;20021;-66
2022/04/27 09:05:17;;;;;;;10.20;0.73;;;13.70;68.80;;;;;;5040436;28;20026;-66
2022/04/27 09:07:51;;;;;;;0.45;0.20;;;13.90;63.50;;;;;;5043849;28;20062;-66
2022/04/27 09:10:19;;;;;;;0.68;0.30;;;13.50;75.60;;;;;;5050091;28;20037;-66
2022/04/27 09:12:51;;;;;;;0.40;0.20;;;13.60;76.80;;;;;;5057894;28;20059;-66
2022/04/27 09:15:19;;;;;;;0.45;0.20;;;13.40;68.10;;;;;;5046289;28;20081;-66
2022/04/27 09:20:50;;;;;;;0.30;0.20;;;13.20;85.00;;;;;;5051491;28;20064;-66
2022/04/27 09:23:28;;;;;;;0.20;0.20;;;13.30;79.60;;;;;;5054371;28;20056;-66
2022/04/27 09:26:00;;;;;;;0.13;0.13;;;13.50;91.00;;;;;;5053619;28;20044;-66
2022/04/27 09:28:31;;;;;;;0.63;0.38;;;13.20;73.40;;;;;;5058459;28;20048;-66
2022/04/27 09:30:59;;;;;;;0.47;0.20;;;12.90;65.90;;;;;;5044963;28;20088;-66
2022/04/27 09:33:36;;;;;;;0.65;0.28;;;12.90;70.50;;;;;;5058368;28;20037;-66
2022/04/27 09:36:23;;;;;;;0.47;0.20;;;12.90;86.50;;;;;;5059465;28;20491;-66
2022/04/27 09:38:48;;;;;;;0.93;0.30;;;12.90;76.00;;;;;;5050677;28;20029;-66
2022/04/27 09:41:14;;;;;;;0.47;0.20;;;13.00;94.40;;;;;;5042405;28;20030;-66
2022/04/27 09:43:43;;;;;;;0.20;0.20;;;12.90;77.90;;;;;;5046056;28;20540;-66
2022/04/27 09:46:22;;;;;;;0.63;0.30;;;12.90;89.40;;;;;;5047438;28;20045;-66
2022/04/27 09:49:11;;;;;;;0.43;0.20;;;12.90;87.30;;;;;;5044499;28;20056;-65
2022/04/27 09:51:57;;;;;;;0.65;0.30;;;12.60;76.70;;;;;;5043665;28;20036;-66
2022/04/27 09:54:24;;;;;;;0.38;0.20;;;12.80;81.80;;;;;;5047734;28;20235;-66
2022/04/27 09:56:54;;;;;;;0.50;0.20;;;12.70;91.80;;;;;;5056211;28;20535;-65
2022/04/27 09:59:29;;;;;;;0.20;0.20;;;12.70;88.00;;;;;;5052324;28;20038;-66
2022/04/27 10:02:05;;;;;;;0.80;0.30;;;12.80;92.40;;;;;;5045646;28;20097;-66
2022/04/27 10:04:31;;;;;;;0.98;0.30;;;13.00;85.00;;;;;;5058117;28;20037;-66
2022/04/27 10:06:58;;;;;;;0.75;0.30;;;13.10;89.50;;;;;;5045204;28;20387;-66
2022/04/27 10:09:28;;;;;;;0.57;0.30;;;13.00;77.70;;;;;;5058010;28;20036;-65
2022/04/27 10:11:56;;;;;;;0.47;0.20;;;13.30;84.20;;;;;;5057627;28;20029;-66
2022/04/27 10:14:22;;;;;;;0.43;0.20;;;13.60;89.60;;;;;;5050557;28;20026;-66
2022/04/27 10:16:51;;;;;;;0.30;0.20;;;13.70;80.10;;;;;;5058020;28;20064;-66
2022/04/27 10:19:17;;;;;;;0.77;0.30;;;14.00;86.50;;;;;;5050790;28;20029;-66
2022/04/27 10:21:57;;;;;;;0.38;0.20;;;14.00;78.60;;;;;;5048055;28;20025;-66
2022/04/27 10:24:35;;;;;;;0.57;0.28;;;14.00;63.70;;;;;;5049143;28;20045;-66
2022/04/27 10:27:18;;;;;;;0.60;0.25;;;14.00;63.70;;;;;;5046004;28;20026;-66
2022/04/27 10:30:08;;;;;;;0.20;0.20;;;13.80;62.00;;;;;;5044911;28;20062;-66
2022/04/27 10:32:47;;;;;;;0.25;0.20;;;13.90;68.70;;;;;;5046379;28;20046;-66
2022/04/27 10:35:14;;;;;;;0.57;0.22;;;13.90;70.90;;;;;;5043245;28;20033;-67
2022/04/27 10:37:54;;;;;;;0.20;0.20;;;13.70;66.20;;;;;;5042126;28;20041;-66
2022/04/27 10:40:38;;;;;;;0.35;0.20;;;13.70;67.50;;;;;;5044991;28;20051;-67
2022/04/27 10:43:14;;;;;;;0.40;0.20;;;14.00;72.40;;;;;;5037425;28;20033;-66
2022/04/27 10:45:47;;;;;;;0.20;0.20;;;14.00;68.00;;;;;;5041141;28;20097;-66
2022/04/27 10:48:22;;;;;;;0.40;0.20;;;14.10;68.20;;;;;;5041853;28;20026;-66
2022/04/27 10:50:57;;;;;;;0.10;0.10;;;14.20;67.10;;;;;;5046041;28;20025;-66
2022/04/27 10:53:25;;;;;;;0.85;0.30;;;13.80;61.10;;;;;;5040583;28;20129;-77
2022/04/27 10:55:54;;;;;;;0.10;0.10;;;13.80;61.50;;;;;;5041989;28;20027;-66
2022/04/27 10:58:28;;;;;;;0.82;0.30;;;13.90;66.10;;;;;;5049104;28;20080;-66
2022/04/27 11:01:03;;;;;;;0.25;0.20;;;14.30;77.70;;;;;;5042578;28;20079;-66
2022/04/27 11:03:30;;;;;;;0.20;0.20;;;14.40;69.40;;;;;;5042335;28;22171;-66
2022/04/27 11:06:00;;;;;;;0.20;0.20;;;14.50;64.60;;;;;;5040788;28;20025;-65
2022/04/27 11:08:39;;;;;;;0.68;0.30;;;14.70;64.20;;;;;;5040417;28;20044;-66
2022/04/27 11:11:06;;;;;;;0.17;0.10;;;14.60;60.80;;;;;;5040564;28;20022;-66
2022/04/27 11:13:34;;;;;;;0.40;0.20;;;15.30;72.40;;;;;;5040610;28;20067;-66
2022/04/27 11:16:10;;;;;;;0.30;0.20;;;15.30;57.00;;;;;;5040667;28;20033;-66
2022/04/27 11:18:55;;;;;;;0.38;0.20;;;15.10;56.50;;;;;;5045171;28;20040;-66
2022/04/27 11:21:22;;;;;;;0.40;0.20;;;15.50;64.80;;;;;;5043598;28;20074;-66
2022/04/27 11:23:50;;;;;;;0.68;0.30;;;15.80;62.30;;;;;;5037807;28;20125;-67
2022/04/27 11:26:16;;;;;;;0.10;0.10;;;15.80;58.30;;;;;;5039826;28;20057;-66
2022/04/27 11:28:49;;;;;;;0.70;0.20;;;15.90;58.10;;;;;;5043628;28;20740;-66
2022/04/27 11:31:16;;;;;;;0.32;0.20;;;15.90;55.30;;;;;;5047456;28;20335;-67
2022/04/27 11:33:42;;;;;;;0.17;0.10;;;15.80;57.50;;;;;;5040251;28;20017;-67
2022/04/27 11:36:20;;;;;;;0.40;0.22;;;15.70;55.30;;;;;;5048040;28;20029;-67
2022/04/27 11:38:45;;;;;;;0.30;0.20;;;15.70;55.50;;;;;;5040760;28;20504;-73
2022/04/27 11:41:20;;;;;;;0.30;0.20;;;15.40;54.10;;;;;;5038817;28;20032;-65
2022/04/27 11:43:47;;;;;;;0.55;0.40;;;15.20;55.70;;;;;;5048593;28;20092;-68
2022/04/27 11:46:13;;;;;;;0.28;0.10;;;15.10;61.80;;;;;;5052984;28;20044;-67
2022/04/27 11:48:39;;;;;;;0.10;0.10;;;14.90;59.00;;;;;;5062847;28;20025;-67
2022/04/27 11:51:08;;;;;;;0.63;0.20;;;14.80;62.70;;;;;;5061061;28;20135;-67
2022/04/27 11:53:45;;;;;;;0.10;0.10;;;14.80;61.80;;;;;;5058203;28;20122;-67
2022/04/27 11:56:11;;;;;;;0.13;0.10;;;15.00;65.80;;;;;;5041998;28;20091;-67
2022/04/27 11:58:37;;;;;;;0.57;0.20;;;15.00;63.30;;;;;;5042178;28;20497;-67
2022/04/27 12:01:02;;;;;;;0.28;0.20;;;15.20;69.40;;;;;;5042261;28;20033;-67
2022/04/27 12:03:30;;;;;;;0.13;0.13;;;14.90;72.40;;;;;;5040757;28;20037;-67
2022/04/27 12:05:56;;;;;;;0.10;0.10;;;15.20;66.80;;;;;;5043466;28;20021;-65
2022/04/27 12:08:24;;;;;;;0.68;0.45;;;15.40;69.70;;;;;;5043565;28;20053;-66
2022/04/27 12:10:50;;;;;;;0.25;0.13;;;15.10;63.20;;;;;;5049322;28;20061;-67
2022/04/27 12:13:20;;;;;;;0.35;0.10;;;15.30;62.10;;;;;;5041140;28;20022;-67
2022/04/27 12:15:50;;;;;;;0.20;0.10;;;15.60;62.00;;;;;;5059024;28;20037;-67
2022/04/27 12:18:20;;;;;;;0.22;0.15;;;15.40;61.70;;;;;;5061884;28;20075;-67
2022/04/27 12:20:48;;;;;;;0.68;0.22;;;15.50;60.30;;;;;;5054403;28;20470;-67
2022/04/27 12:23:29;;;;;;;0.38;0.20;;;15.60;58.00;;;;;;5042111;28;20037;-67
2022/04/27 12:25:57;;;;;;;;;;;16.00;59.00;;;;;;5052075;28;20062;-67
2022/04/27 12:28:29;;;;;;;0.28;0.20;;;16.60;57.00;;;;;;5060657;28;19905;-67
2022/04/27 12:30:59;;;;;;;;;;;16.70;54.80;;;;;;5056440;28;20055;-67
2022/04/27 12:33:49;;;;;;;0.43;0.20;;;17.30;54.70;;;;;;5040500;28;19912;-67
2022/04/27 12:39:22;;;;;;;0.47;0.20;;;16.90;51.10;;;;;;5061615;28;20039;-67
2022/04/27 12:41:50;;;;;;;0.10;0.10;;;17.00;53.50;;;;;;5055829;28;20392;-66
2022/04/27 12:44:17;;;;;;;0.15;0.10;;;17.10;52.60;;;;;;5059091;28;20033;-67
2022/04/27 12:47:00;;;;;;;0.30;0.10;;;16.90;53.80;;;;;;5050489;28;20047;-66
2022/04/27 12:49:28;;;;;;;0.17;0.10;;;17.00;51.70;;;;;;5041140;28;20026;-66
2022/04/27 12:51:55;;;;;;;0.17;0.10;;;16.70;55.30;;;;;;5040739;28;20028;-66
2022/04/27 12:54:36;;;;;;;0.50;0.20;;;16.70;56.70;;;;;;5049909;28;20036;-66
2022/04/27 12:57:02;;;;;;;0.50;0.20;;;16.50;54.20;;;;;;5060330;28;20056;-67
2022/04/27 12:59:27;;;;;;;0.47;0.20;;;16.40;56.60;;;;;;5057538;28;20081;-67
2022/04/27 13:02:02;;;;;;;0.90;0.25;;;16.20;56.10;;;;;;5059438;28;20037;-66
2022/04/27 13:04:28;;;;;;;0.38;0.20;;;16.10;58.90;;;;;;5040097;28;20044;-67
2022/04/27 13:06:54;;;;;;;0.17;0.13;;;15.80;57.20;;;;;;5042472;28;20048;-67
2022/04/27 13:12:04;;;;;;;0.28;0.15;;;15.70;60.70;;;;;;5040570;28;20040;-67
2022/04/27 13:14:31;;;;;;;0.57;0.20;;;15.70;59.10;;;;;;5041524;28;20037;-67
2022/04/27 13:16:57;;;;;;;0.17;0.10;;;15.50;58.70;;;;;;5044709;28;20195;-67
2022/04/27 13:19:23;;;;;;;0.47;0.20;;;15.20;56.80;;;;;;5052013;28;20091;-67
2022/04/27 13:21:50;;;;;;;0.10;0.10;;;15.10;58.50;;;;;;5060251;28;20020;-67